地図

経路データ

SID SEASON NUMBER BASIN SUBBASIN NAME ISO_TIME NATURE LAT LON WMO_WIND WMO_PRES WMO_AGENCY TRACK_TYPE DIST2LAND LANDFALL IFLAG USA_AGENCY USA_ATCF_ID USA_LAT USA_LON USA_RECORD USA_STATUS USA_WIND USA_PRES USA_SSHS USA_R34_NE USA_R34_SE USA_R34_SW USA_R34_NW USA_R50_NE USA_R50_SE USA_R50_SW USA_R50_NW USA_R64_NE USA_R64_SE USA_R64_SW USA_R64_NW USA_POCI USA_ROCI USA_RMW USA_EYE TOKYO_LAT TOKYO_LON TOKYO_GRADE TOKYO_WIND TOKYO_PRES TOKYO_R50_DIR TOKYO_R50_LONG TOKYO_R50_SHORT TOKYO_R30_DIR TOKYO_R30_LONG TOKYO_R30_SHORT TOKYO_LAND CMA_LAT CMA_LON CMA_CAT CMA_WIND CMA_PRES HKO_LAT HKO_LON HKO_CAT HKO_WIND HKO_PRES NEWDELHI_LAT NEWDELHI_LON NEWDELHI_GRADE NEWDELHI_WIND NEWDELHI_PRES NEWDELHI_CI NEWDELHI_DP NEWDELHI_POCI REUNION_LAT REUNION_LON REUNION_TYPE REUNION_WIND REUNION_PRES REUNION_TNUM REUNION_CI REUNION_RMW REUNION_R34_NE REUNION_R34_SE REUNION_R34_SW REUNION_R34_NW REUNION_R50_NE REUNION_R50_SE REUNION_R50_SW REUNION_R50_NW REUNION_R64_NE REUNION_R64_SE REUNION_R64_SW REUNION_R64_NW BOM_LAT BOM_LON BOM_TYPE BOM_WIND BOM_PRES BOM_TNUM BOM_CI BOM_RMW BOM_R34_NE BOM_R34_SE BOM_R34_SW BOM_R34_NW BOM_R50_NE BOM_R50_SE BOM_R50_SW BOM_R50_NW BOM_R64_NE BOM_R64_SE BOM_R64_SW BOM_R64_NW BOM_ROCI BOM_POCI BOM_EYE BOM_POS_METHOD BOM_PRES_METHOD NADI_LAT NADI_LON NADI_CAT NADI_WIND NADI_PRES WELLINGTON_LAT WELLINGTON_LON WELLINGTON_WIND WELLINGTON_PRES DS824_LAT DS824_LON DS824_STAGE DS824_WIND DS824_PRES TD9636_LAT TD9636_LON TD9636_STAGE TD9636_WIND TD9636_PRES TD9635_LAT TD9635_LON TD9635_WIND TD9635_PRES TD9635_ROCI NEUMANN_LAT NEUMANN_LON NEUMANN_CLASS NEUMANN_WIND NEUMANN_PRES MLC_LAT MLC_LON MLC_CLASS MLC_WIND MLC_PRES USA_GUST BOM_GUST BOM_GUST_PER REUNION_GUST REUNION_GUST_PER USA_SEAHGT USA_SEARAD_NE USA_SEARAD_SE USA_SEARAD_SW USA_SEARAD_NW STORM_SPEED STORM_DIR
1929270N12070 1929 62 NI AS NOT_NAMED 1929-09-27 00:00:00 TS 12.1000 69.9000 main 538 535 _________O____ -1 12.1000 69.9000 TC 30 3 328
1929270N12070 1929 62 NI AS NOT_NAMED 1929-09-27 03:00:00 TS 12.2383 69.8100 main 545 542 _________PO___ -1 12.3075 69.7650 TC 30 12.1000 69.9000 1 4 322
1929270N12070 1929 62 NI AS NOT_NAMED 1929-09-27 06:00:00 TS 12.4270 69.6390 main 554 548 _________OP___ -1 12.5000 69.6000 TC 30 12.3174 69.6974 1 5 315
1929270N12070 1929 62 NI AS NOT_NAMED 1929-09-27 09:00:00 TS 12.6019 69.4410 main 560 555 _________PP___ -1 12.6650 69.3925 TC 30 12.5178 69.5057 1 5 311
1929270N12070 1929 62 NI AS NOT_NAMED 1929-09-27 12:00:00 TS 12.7421 69.2681 main 564 559 _________OP___ -1 12.8000 69.2000 TC 30 12.6843 69.3361 1 4 312
1929270N12070 1929 62 NI AS NOT_NAMED 1929-09-27 15:00:00 TS 12.8575 69.1462 main 573 573 _________PO___ -1 12.9150 69.0925 TC 30 12.8000 69.2000 1 3 312
1929270N12070 1929 62 NI AS NOT_NAMED 1929-09-27 18:00:00 TS 12.9294 69.0503 main 573 573 _________OP___ -1 13.0000 69.0000 TC 30 12.8588 69.1007 1 2 297
1929270N12070 1929 62 NI AS NOT_NAMED 1929-09-27 21:00:00 TS 12.9547 68.9519 main 578 578 _________PP___ -1 13.0124 68.8948 TC 30 12.8971 69.0090 1 3 292
1929270N12070 1929 62 NI AS NOT_NAMED 1929-09-28 00:00:00 TS 13.0309 68.7940 main 598 594 _________OP___ -1 13.1000 68.7000 TC 30 12.9618 68.8879 1 5 305
1929270N12070 1929 62 NI AS NOT_NAMED 1929-09-28 03:00:00 TS 13.2526 68.5151 main 616 616 _________PO___ -1 13.4051 68.3302 TC 30 13.1000 68.7000 1 8 313
1929270N12070 1929 62 NI AS NOT_NAMED 1929-09-28 06:00:00 TS 13.5935 68.1628 main 632 632 _________OP___ -1 13.8000 67.9000 TC 30 13.3871 68.4256 1 10 316
1929270N12070 1929 62 NI AS NOT_NAMED 1929-09-28 09:00:00 TS 13.9560 67.8251 main 653 653 _________PP___ -1 14.1648 67.5723 TC 30 13.7472 68.0779 1 10 316
1929270N12070 1929 62 NI AS NOT_NAMED 1929-09-28 12:00:00 TS 14.3169 67.4331 main 678 674 _________OP___ -1 14.5000 67.2000 TC 30 14.1338 67.6661 1 11 308
1929270N12070 1929 62 NI AS NOT_NAMED 1929-09-28 15:00:00 TS 14.6325 66.9399 main 718 714 _________PO___ -1 14.7651 66.6799 TC 30 14.5000 67.2000 1 12 299
1929270N12070 1929 62 NI AS NOT_NAMED 1929-09-28 18:00:00 TS 14.8816 66.3777 main 760 760 _________OP___ -1 15.0000 66.1000 TC 30 14.7633 66.6555 1 12 294
1929270N12070 1929 62 NI AS NOT_NAMED 1929-09-28 21:00:00 TS 15.1181 65.7874 main 816 813 _________PP___ -1 15.2351 65.5050 TC 30 15.0011 66.0698 1 12 294
1929270N12070 1929 62 NI AS NOT_NAMED 1929-09-29 00:00:00 TS 15.3691 65.2496 main 827 824 _________OP___ -1 15.5000 65.0000 TC 30 15.2383 65.4992 1 11 301
1929270N12070 1929 62 NI AS NOT_NAMED 1929-09-29 03:00:00 TS 15.6674 64.8561 main 823 795 _________PO___ -1 15.8347 64.7122 TC 30 15.5000 65.0000 1 9 315
1929270N12070 1929 62 NI AS NOT_NAMED 1929-09-29 06:00:00 TS 16.0161 64.5888 main 795 747 _________OP___ -1 16.2000 64.5000 TC 30 15.8323 64.6776 1 9 324
1929270N12070 1929 62 NI AS NOT_NAMED 1929-09-29 09:00:00 TS 16.3742 64.3281 main 747 714 _________PP___ -1 16.5574 64.2299 TC 30 16.1909 64.4263 1 9 324
1929270N12070 1929 62 NI AS NOT_NAMED 1929-09-29 12:00:00 TS 16.7271 64.0435 main 704 662 _________OP___ -1 16.9000 63.9000 TC 30 16.5542 64.1869 1 9 318
1929270N12070 1929 62 NI AS NOT_NAMED 1929-09-29 15:00:00 TS 17.0575 63.6900 main 659 611 _________PO___ -1 17.2150 63.4799 TC 31 16.9000 63.9000 1 10 310
1929270N12070 1929 62 NI AS NOT_NAMED 1929-09-29 18:00:00 TS 17.3480 63.2592 main 611 549 _________OP___ -1 17.5000 63.0000 TC 32 17.1961 63.5184 1 10 303
1929270N12070 1929 62 NI AS NOT_NAMED 1929-09-29 21:00:00 TS 17.6106 62.8068 main 549 487 _________PP___ -1 17.7497 62.5371 TC 33 17.4716 63.0764 1 11 299
1929270N12070 1929 62 NI AS NOT_NAMED 1929-09-30 00:00:00 TS 17.8682 62.2856 main 487 423 _________OP___ -1 18.0000 62.0000 TC 34 17.7364 62.5713 1 12 296
1929270N12070 1929 62 NI AS NOT_NAMED 1929-09-30 03:00:00 TS 18.1500 61.6650 main 416 343 _________PO___ -1 18.3000 61.3301 TC 33 18.0000 62.0000 2 14 295
1929270N12070 1929 62 NI AS NOT_NAMED 1929-09-30 06:00:00 TS 18.4480 60.9725 main 343 265 _________OP___ -1 18.6000 60.6000 TC 32 18.2960 61.3450 2 15 293
1929270N12070 1929 62 NI AS NOT_NAMED 1929-09-30 09:00:00 TS 18.7305 60.2542 main 265 189 _________PP___ -1 18.8725 59.8775 TC 31 18.5886 60.6309 2 15 292
1929270N12070 1929 62 NI AS NOT_NAMED 1929-09-30 12:00:00 TS 18.9808 59.5506 main 189 128 _________OP___ -1 19.1000 59.2000 TC 30 18.8616 59.9012 2 13 290
1929270N12070 1929 62 NI AS NOT_NAMED 1929-09-30 15:00:00 TS 19.1823 58.9173 main 117 71 _________PO___ -1 19.2645 58.6347 TC 30 19.1000 59.2000 1 12 288
1929270N12070 1929 62 NI AS NOT_NAMED 1929-09-30 18:00:00 TS 19.3391 58.3636 main 71 10 _________OP___ -1 19.4000 58.1000 TC 30 19.2935 58.5612 1 11 286
1929270N12070 1929 62 NI AS NOT_NAMED 1929-09-30 21:00:00 TS 19.4882 57.7935 main 10 0 _________PP___ -1 19.5456 57.5179 TC 30 19.4500 57.9772 1 11 285
1929270N12070 1929 62 NI AS NOT_NAMED 1929-10-01 00:00:00 TS 19.6210 57.2531 main 0 0 _________OP___ -1 19.7000 56.9000 TC 30 19.5815 57.4297 1 9 284
1929270N12070 1929 62 NI AS NOT_NAMED 1929-10-01 03:00:00 NR 19.7000 56.9000 main 0 __________O___ -1 TC 19.7000 56.9000 1 7 283

IBTrACS Databaseについて

本データベースは、米国NOAAが公開する1842年以降の世界の熱帯低気圧のベストトラックデータアーカイブInternational Best Track Archive for Climate Stewardship (IBTrACS)を、ウェブで閲覧しやすい形式に変換したものです。

最終更新日:2021-10-08